气象报文与情报通波
气象报文机场: ZWWW
ADDS - METARS form results

(1055 UTC 18 November 2019)
数据来源 http://aviationweather.gov/metar/data/
 
METAR text: ZWWW 181030Z 02002MPS 5000 FU NSC M05/M10 Q1028 NOSIG
Conditions at: ZWWW (URUM-QI/DIWOPU , CN) observed 1030 UTC 18 November 2019
Temperature: -5.0°C (23°F)
Dewpoint: -10.0°C (14°F) [RH = 68%]
Pressure (altimeter): 30.35 inches Hg (1028.0 mb)
Winds: from the NNE (20 degrees) at 5 MPH (4 knots; 2.1 m/s)
Visibility: 3 miles ( 5 km)
Ceiling: at least 12,000 feet AGL
Clouds: sky clear below 12,000 feet AGL
Weather: FU  (smoke)

METAR text: ZWWW 181000Z 01001MPS 5000 FU NSC M05/M10 Q1028 NOSIG
Conditions at: ZWWW (URUM-QI/DIWOPU , CN) observed 1000 UTC 18 November 2019
Temperature: -5.0°C (23°F)
Dewpoint: -10.0°C (14°F) [RH = 68%]
Pressure (altimeter): 30.35 inches Hg (1028.0 mb)
Winds: from the N (10 degrees) at 2 MPH (2 knots; 1.0 m/s)
Visibility: 3 miles ( 5 km)
Ceiling: at least 12,000 feet AGL
Clouds: sky clear below 12,000 feet AGL
Weather: FU  (smoke)

Forecast for: ZWWW (URUM-QI/DIWOPU , CN)
Text: TAF ZWWW 180907Z 1812/1912 18003MPS 6000 NSC TX03/1909Z TNM10/23Z
Forecast period: 1200 UTC 18 November 2019 to 0200 UTC 19 November 2019
Forecast type: FROM: standard forecast or significant change
Winds: from the S (180 degrees) at 7 MPH (6 knots; 3.1 m/s)
Visibility: 4 miles (6 km)
Ceiling: unknown
Clouds: missing
Weather: no significant weather forecast for this period
Text: BECMG 1902/1903 36003MPS
Forecast period: 0200 to 1200 UTC 19 November 2019
Forecast type: BECOMING: Conditions expected to become as follows by 0300 UTC 19 November 2019
Winds: from the N (360 degrees) at 7 MPH (6 knots; 3.1 m/s)
Visibility: 4 miles (6 km)
Ceiling: unknown
Clouds: missing
Weather: no significant weather forecast for this period

 机场地图

 跑道信息
跑道 07 跑道长度 11811 ft 跑道宽度 148 ft
跑道标高 2123 ft 跑道內移距离 0 ft 跑道磁航向 74
跑道 25 跑道长度 11811 ft 跑道宽度 148 ft
跑道标高 2126 ft 跑道內移距离 0 ft 跑道磁航向 254

 机场频率
类型 ATIS 名称 ATIS 频率 126.7 MHZ
类型 GND 名称 GND 频率 121.65 MHZ
类型 TWR 名称 TWR 频率 118.1 MHZ

 机场附近导航设备
类型 NDB 名称 Fukang 频率 369 KHZ
类型 VOR-DME 名称 Fukang 频率 116300 KHZ
类型 VOR-DME 名称 Urumqi 频率 115700 KHZ



© FlySim.cn中国最大航空飞行视频网版权所有